Time;durP1;ratioP1;P1;durP2;ratioP2;P2;SDS_P1;SDS_P2;PMS_P1;PMS_P2;Temp;Humidity;BMP_temperature;BMP_pressure;BME280_temperature;BME280_humidity;BME280_pressure;Samples;Min_cycle;Max_cycle;Signal;HPM_P1;HPM_P2
2022/08/28 00:00:44;;;;;;;;;20.67;17.00;;;;;20.35;93.71;99106.78;6281259;20;3570217;-58
2022/08/28 00:03:15;;;;;;;;;23.00;20.00;;;;;20.42;93.58;99104.19;6278642;20;2846173;-58
2022/08/28 00:05:45;;;;;;;;;22.00;19.67;;;;;20.60;92.54;99109.50;6315251;20;3577376;-59
2022/08/28 00:08:16;;;;;;;;;22.50;21.50;;;;;20.68;92.18;99105.91;6279202;20;2840945;-58
2022/08/28 00:10:45;;;;;;;;;19.00;16.67;;;;;20.71;91.61;99106.41;6282193;20;3573249;-59
2022/08/28 00:13:20;;;;;;;;;19.50;19.50;;;;;20.59;92.56;99099.63;6278335;20;2827404;-59
2022/08/28 00:15:55;;;;;;;;;17.33;16.00;;;;;20.72;91.95;99097.22;6280786;20;3567135;-58
2022/08/28 00:18:25;;;;;;;;;22.50;20.50;;;;;20.37;93.31;99103.88;6311344;20;2823235;-59
2022/08/28 00:20:53;;;;;;;;;5.00;3.50;;;;;20.17;94.81;99101.50;6283055;20;2741944;-59
2022/08/28 00:23:24;;;;;;;;;21.33;20.33;;;;;20.14;94.80;99098.25;6281621;20;3550328;-58
2022/08/28 00:26:06;;;;;;;;;22.00;19.33;;;;;20.16;95.59;99101.66;6276222;20;2844011;-59
2022/08/28 00:28:35;;;;;;;;;17.67;17.00;;;;;20.34;94.41;99098.75;6311690;20;3572223;-59
2022/08/28 00:31:04;;;;;;;;;23.33;21.00;;;;;20.55;93.41;99100.97;6281124;20;3569043;-58
2022/08/28 00:33:34;;;;;;;;;21.67;20.67;;;;;20.63;92.55;99100.97;6279527;20;2848300;-58
2022/08/28 00:36:04;;;;;;;;;20.50;18.50;;;;;20.67;92.88;99104.19;6308363;20;2834729;-58
2022/08/28 00:38:32;;;;;;;;;22.67;20.33;;;;;20.57;92.70;99099.78;6277623;20;3573118;-58
2022/08/28 00:41:02;;;;;;;;;25.00;20.00;;;;;20.59;93.46;99105.09;6280147;20;3450213;-59
2022/08/28 00:43:39;;;;;;;;;18.00;18.00;;;;;20.61;92.87;99100.28;6311842;20;3570111;-58
2022/08/28 00:46:23;;;;;;;;;20.00;18.50;;;;;20.45;93.61;99092.94;6279250;20;2819001;-58
2022/08/28 00:48:53;;;;;;;;;26.33;22.67;;;;;20.59;93.17;99091.44;6280521;20;3600334;-58
2022/08/28 00:54:10;;;;;;;;;21.67;20.67;;;;;20.90;90.05;99132.44;6276307;20;2844150;-59
2022/08/28 00:56:40;;;;;;;;;22.00;19.67;;;;;20.89;89.08;99138.09;6307793;20;3573174;-57
2022/08/28 00:59:15;;;;;;;;;20.33;19.00;;;;;20.97;87.76;99124.41;6277956;20;3575225;-58
2022/08/28 01:01:48;;;;;;;;;17.33;17.33;;;;;21.10;85.99;99116.53;6278851;20;3565075;-59
2022/08/28 01:04:22;;;;;;;;;16.67;15.67;;;;;21.25;85.88;99125.69;6309849;20;2824300;-58
2022/08/28 01:06:55;;;;;;;;;16.00;14.50;;;;;21.41;84.16;99140.34;6307621;20;2819334;-58
2022/08/28 01:09:29;;;;;;;;;16.50;16.00;;;;;21.53;82.57;99160.75;6275808;20;2818038;-58
2022/08/28 01:12:09;;;;;;;;;17.33;17.33;;;;;21.54;81.69;99156.13;6278841;20;3573338;-59
2022/08/28 01:14:40;;;;;;;;;17.50;16.00;;;;;21.62;81.57;99154.25;6277649;20;2835690;-58
2022/08/28 01:17:10;;;;;;;;;13.00;13.00;;;;;21.82;80.00;99156.50;6271603;20;3539856;-59
2022/08/28 01:19:51;;;;;;;;;13.33;13.00;;;;;21.86;79.54;99149.66;6276530;20;3526298;-59
2022/08/28 01:23:01;;;;;;;;;15.50;15.50;;;;;21.83;80.14;99159.06;6271646;20;2804410;-58
2022/08/28 01:25:34;;;;;;;;;19.00;17.00;;;;;21.63;80.99;99153.19;6272539;20;2489881;-58
2022/08/28 01:28:10;;;;;;;;;15.00;15.00;;;;;21.40;81.96;99155.84;6306564;20;2804620;-59
2022/08/28 01:30:44;;;;;;;;;20.50;17.00;;;;;21.39;82.41;99173.28;6276274;20;2827361;-58
2022/08/28 01:33:14;;;;;;;;;16.50;16.50;;;;;21.41;82.11;99173.13;6275863;20;2837766;-58
2022/08/28 01:35:47;;;;;;;;;17.50;16.50;;;;;21.56;81.56;99171.31;6269655;20;2838331;-59
2022/08/28 01:38:17;;;;;;;;;15.50;14.50;;;;;21.87;79.48;99170.50;6264286;20;2815018;-58
2022/08/28 01:40:52;;;;;;;;;17.00;16.00;;;;;21.87;79.66;99162.28;6276412;20;2826298;-60
2022/08/28 01:43:26;;;;;;;;;17.00;14.00;;;;;21.87;79.42;99168.59;6278830;20;2814914;-58
2022/08/28 01:46:01;;;;;;;;;15.00;15.00;;;;;21.82;79.62;99179.22;6278800;20;2814098;-58
2022/08/28 01:48:36;;;;;;;;;18.50;16.00;;;;;21.64;81.09;99184.09;6274343;20;2826430;-59
2022/08/28 01:51:06;;;;;;;;;18.00;15.00;;;;;21.85;81.41;99180.75;6274842;20;2489861;-59
2022/08/28 01:53:35;;;;;;;;;18.00;18.00;;;;;21.91;82.22;99180.03;6304155;20;2483826;-58
2022/08/28 01:56:12;;;;;;;;;19.33;18.00;;;;;21.86;82.78;99172.38;6306585;20;3567967;-58
2022/08/28 01:58:41;;;;;;;;;19.50;16.50;;;;;21.94;83.41;99179.69;6277809;20;2827342;-58
2022/08/28 02:01:20;;;;;;;;;17.00;17.00;;;;;22.07;83.49;99179.09;6280802;20;3566924;-58
2022/08/28 02:03:51;;;;;;;;;14.00;14.00;;;;;22.03;83.87;99175.00;6278048;20;2810821;-59
2022/08/28 02:06:20;;;;;;;;;16.67;14.67;;;;;22.02;84.65;99165.13;6276619;20;3542094;-58
2022/08/28 02:08:53;;;;;;;;;15.00;15.00;;;;;22.00;84.30;99157.06;6307456;20;2810681;-59
2022/08/28 02:11:23;;;;;;;;;18.00;16.00;;;;;22.01;83.99;99158.81;6277017;20;2829421;-59
2022/08/28 02:13:53;;;;;;;;;18.50;16.00;;;;;22.00;84.34;99156.22;6274475;20;2829465;-59
2022/08/28 02:16:24;;;;;;;;;19.67;16.67;;;;;22.04;84.35;99163.91;6279199;20;3566041;-58
2022/08/28 02:18:52;;;;;;;;;18.33;17.00;;;;;22.11;83.56;99162.13;6275986;20;3563775;-58
2022/08/28 02:21:22;;;;;;;;;17.00;17.00;;;;;21.98;84.73;99169.22;6279245;20;2835689;-58
2022/08/28 02:23:51;;;;;;;;;15.67;15.67;;;;;21.98;84.61;99158.28;6285570;20;3549190;-58
2022/08/28 02:26:22;;;;;;;;;17.00;17.00;;;;;21.96;85.18;99155.75;6313537;20;2823266;-58
2022/08/28 02:28:50;;;;;;;;;19.00;16.00;;;;;22.03;85.47;99159.44;6280604;20;2829420;-58
2022/08/28 02:31:19;;;;;;;;;16.00;12.67;;;;;21.92;85.82;99159.88;6281609;20;3528456;-58
2022/08/28 02:33:48;;;;;;;;;19.50;17.00;;;;;21.80;86.63;99161.28;6310160;20;2832559;-58
2022/08/28 02:36:17;;;;;;;;;17.00;15.50;;;;;21.83;86.81;99156.34;6283374;20;2823282;-58
2022/08/28 02:38:46;;;;;;;;;17.50;15.00;;;;;21.85;86.23;99159.75;6275734;20;2822175;-59
2022/08/28 02:41:15;;;;;;;;;18.67;15.00;;;;;21.81;86.30;99163.88;6282875;20;2487808;-58
2022/08/28 02:43:44;;;;;;;;;16.50;15.00;;;;;21.69;87.03;99160.66;6309197;20;2813850;-58
2022/08/28 02:46:13;;;;;;;;;17.00;17.00;;;;;21.66;87.76;99154.72;6279454;20;2825261;-58
2022/08/28 02:48:42;;;;;;;;;14.33;13.67;;;;;21.76;86.79;99154.50;6282734;20;2787309;-58
2022/08/28 02:51:13;;;;;;;;;13.67;13.67;;;;;21.72;87.29;99161.34;6307556;20;3520171;-59
2022/08/28 02:53:42;;;;;;;;;16.33;15.33;;;;;21.82;86.66;99153.78;6283404;20;3550230;-59
2022/08/28 02:56:11;;;;;;;;;14.00;14.00;;;;;21.78;87.53;99149.72;6309086;20;3523154;-59
2022/08/28 02:58:40;;;;;;;;;15.00;15.00;;;;;21.72;87.60;99134.88;6281645;20;2811767;-58
2022/08/28 03:01:12;;;;;;;;;14.00;13.50;;;;;21.65;88.71;99134.75;6282685;20;2494139;-58
2022/08/28 03:03:43;;;;;;;;;15.33;13.00;;;;;21.66;88.76;99144.63;6314802;20;3528555;-58
2022/08/28 03:06:12;;;;;;;;;13.67;13.33;;;;;21.64;88.87;99135.78;6312976;20;2483752;-58
2022/08/28 03:08:43;;;;;;;;;17.67;15.00;;;;;21.57;89.47;99131.22;6309689;20;2483616;-58
2022/08/28 03:11:11;;;;;;;;;15.33;15.00;;;;;21.53;89.27;99133.44;6313589;20;2494181;-59
2022/08/28 03:13:41;;;;;;;;;14.00;13.67;;;;;21.42;90.31;99131.94;6313418;20;2487757;-59
2022/08/28 03:16:09;;;;;;;;;11.33;10.33;;;;;21.40;90.43;99146.81;6313643;20;2485683;-58
2022/08/28 03:18:38;;;;;;;;;18.00;15.00;;;;;21.31;90.66;99162.34;6311410;20;2488010;-59
2022/08/28 03:21:08;;;;;;;;;16.00;14.67;;;;;21.33;90.94;99160.31;6313161;20;2487919;-62
2022/08/28 03:23:38;;;;;;;;;18.00;15.00;;;;;21.32;90.88;99169.50;6309556;20;2817981;-61
2022/08/28 03:26:13;;;;;;;;;15.67;15.00;;;;;21.23;91.41;99165.97;6280019;20;3558626;-61
2022/08/28 03:28:48;;;;;;;;;20.00;14.00;;;;;21.23;91.35;99168.69;6284274;20;3543962;-61
2022/08/28 03:31:25;;;;;;;;;12.00;10.00;;;;;21.25;90.70;99157.63;6314637;20;2788835;-61
2022/08/28 03:33:55;;;;;;;;;14.33;14.33;;;;;21.16;91.53;99155.91;6311984;20;3537920;-61
2022/08/28 03:36:27;;;;;;;;;14.33;13.00;;;;;21.26;90.94;99154.69;6313644;20;3530711;-61
2022/08/28 03:39:00;;;;;;;;;15.50;14.50;;;;;21.24;91.33;99154.00;6312701;20;2804524;-61
2022/08/28 03:41:31;;;;;;;;;17.50;15.50;;;;;21.16;91.46;99148.56;6278657;20;2827806;-61
2022/08/28 03:44:01;;;;;;;;;6.00;6.00;;;;;21.12;91.58;99152.72;6284303;20;2731719;-61
2022/08/28 03:46:32;;;;;;;;;16.00;15.00;;;;;21.14;91.68;99150.63;6286441;20;2491922;-61
2022/08/28 03:49:03;;;;;;;;;19.67;16.00;;;;;21.06;92.00;99153.38;6311391;20;3564824;-62
2022/08/28 03:51:34;;;;;;;;;19.00;15.50;;;;;21.03;92.03;99164.66;6277741;20;2833583;-61
2022/08/28 03:54:03;;;;;;;;;14.00;14.00;;;;;20.95;92.80;99167.41;6281055;20;3502330;-61
2022/08/28 03:56:32;;;;;;;;;16.33;16.33;;;;;20.88;93.29;99182.75;6309223;20;3565022;-60
2022/08/28 03:59:04;;;;;;;;;13.00;13.00;;;;;20.89;93.44;99195.41;6291945;20;2789900;-60
2022/08/28 04:01:33;;;;;;;;;13.00;13.00;;;;;20.80;93.50;99194.53;6276001;20;3537725;-61
2022/08/28 04:04:02;;;;;;;;;13.33;13.33;;;;;20.90;93.56;99191.63;6282679;20;3532661;-61
2022/08/28 04:06:30;;;;;;;;;14.50;13.50;;;;;20.87;93.76;99192.00;6306699;20;2491942;-61
2022/08/28 04:08:58;;;;;;;;;16.33;15.00;;;;;20.87;93.74;99202.91;6277983;20;3535710;-61
2022/08/28 04:11:28;;;;;;;;;16.67;15.33;;;;;20.89;93.18;99192.69;6278615;20;3547170;-60
2022/08/28 04:13:57;;;;;;;;;16.00;16.00;;;;;20.94;93.14;99195.75;6276370;20;2820649;-61
2022/08/28 04:16:25;;;;;;;;;18.50;15.00;;;;;20.86;93.52;99203.94;6278369;20;2485735;-61
2022/08/28 04:18:54;;;;;;;;;16.00;15.67;;;;;20.92;92.81;99200.50;6278901;20;3557566;-60
2022/08/28 04:21:27;;;;;;;;;16.00;15.50;;;;;20.93;92.15;99192.16;6276854;20;2825293;-61
2022/08/28 04:23:56;;;;;;;;;15.50;14.00;;;;;20.91;92.50;99194.22;6278388;20;2803394;-61
2022/08/28 04:26:26;;;;;;;;;12.67;11.33;;;;;20.97;92.51;99189.94;6276647;20;3518990;-60
2022/08/28 04:28:55;;;;;;;;;15.50;15.50;;;;;20.95;91.96;99189.25;6272418;20;2809777;-61
2022/08/28 04:31:27;;;;;;;;;15.00;13.00;;;;;21.03;91.63;99197.41;6277144;20;2796121;-60
2022/08/28 04:34:04;;;;;;;;;16.00;15.00;;;;;20.97;91.27;99193.50;6278804;20;2812792;-62
2022/08/28 04:36:32;;;;;;;;;16.50;14.00;;;;;21.03;90.58;99208.31;6276850;20;2492012;-61
2022/08/28 04:39:04;;;;;;;;;15.67;13.00;;;;;21.04;90.98;99207.31;6277336;20;2491946;-61
2022/08/28 04:41:37;;;;;;;;;13.33;12.33;;;;;21.03;90.23;99216.53;6310602;20;3517028;-61
2022/08/28 04:44:31;;;;;;;;;13.67;13.67;;;;;20.97;90.69;99209.88;6277963;20;2483709;-60
2022/08/28 04:47:00;;;;;;;;;16.00;14.67;;;;;21.11;90.39;99210.19;6311906;20;2810948;-61
2022/08/28 04:49:29;;;;;;;;;12.00;12.00;;;;;21.09;89.75;99213.13;6307894;20;3523206;-61
2022/08/28 04:51:57;;;;;;;;;14.67;14.00;;;;;21.04;90.22;99210.06;6308365;20;3541956;-61
2022/08/28 04:54:26;;;;;;;;;13.33;12.67;;;;;21.04;90.02;99205.44;6284090;20;2801383;-60
2022/08/28 04:56:54;;;;;;;;;14.00;14.00;;;;;21.04;89.74;99204.59;6311400;20;3532558;-61
2022/08/28 04:59:23;;;;;;;;;14.00;12.00;;;;;21.09;89.19;99207.66;6310030;20;3534682;-61
2022/08/28 05:01:52;;;;;;;;;17.67;15.33;;;;;21.13;88.69;99203.53;6278166;20;2487793;-61
2022/08/28 05:04:21;;;;;;;;;16.33;13.33;;;;;21.17;88.98;99207.63;6309032;20;3535662;-63
2022/08/28 05:06:49;;;;;;;;;16.00;13.00;;;;;21.43;88.13;99203.81;6277284;20;2614874;-61
2022/08/28 05:09:20;;;;;;;;;15.33;14.00;;;;;21.51;87.27;99211.97;6306182;20;3528600;-61
2022/08/28 05:11:49;;;;;;;;;16.33;13.67;;;;;21.59;86.85;99220.16;6279649;20;3534652;-61
2022/08/28 05:14:18;;;;;;;;;19.00;13.33;;;;;21.73;86.12;99220.44;6309901;20;3526306;-61
2022/08/28 05:16:51;;;;;;;;;15.00;13.33;;;;;21.81;85.15;99217.69;6273373;20;3540091;-61
2022/08/28 05:19:21;;;;;;;;;11.00;11.00;;;;;21.88;85.27;99224.13;6275759;20;3513797;-62
2022/08/28 05:21:51;;;;;;;;;14.33;14.33;;;;;21.81;85.61;99228.63;6309245;20;2491945;-61
2022/08/28 05:24:21;;;;;;;;;15.33;14.67;;;;;21.94;84.50;99228.88;6307769;20;2483590;-61
2022/08/28 05:26:49;;;;;;;;;13.00;11.67;;;;;21.87;85.31;99223.25;6301559;20;3538933;-61
2022/08/28 05:29:19;;;;;;;;;12.00;12.00;;;;;22.18;84.05;99227.88;6278431;20;3524243;-60
2022/08/28 05:31:51;;;;;;;;;14.67;14.67;;;;;22.83;81.39;99223.84;6277021;20;3520342;-60
2022/08/28 05:34:20;;;;;;;;;15.00;12.33;;;;;22.82;80.70;99226.75;6276410;20;3519019;-61
2022/08/28 05:36:48;;;;;;;;;16.00;13.00;;;;;22.88;79.99;99232.34;6305816;20;2491968;-61
2022/08/28 05:39:17;;;;;;;;;13.50;12.50;;;;;22.57;81.08;99232.44;6302685;20;2805568;-61
2022/08/28 05:41:46;;;;;;;;;15.67;14.00;;;;;22.68;81.53;99229.28;6274458;20;3534588;-61
2022/08/28 05:44:17;;;;;;;;;16.33;13.33;;;;;23.38;79.02;99233.59;6308098;20;3534631;-61
2022/08/28 05:46:47;;;;;;;;;12.00;11.33;;;;;23.56;76.91;99233.19;6275272;20;3532525;-61
2022/08/28 05:49:18;;;;;;;;;12.00;10.00;;;;;24.37;73.68;99235.94;6275039;20;3522346;-60
2022/08/28 05:51:48;;;;;;;;;13.33;13.33;;;;;24.79;71.86;99249.91;6282467;20;3526270;-60
2022/08/28 05:54:18;;;;;;;;;16.00;12.00;;;;;24.50;73.31;99258.06;6307818;20;3535911;-60
2022/08/28 05:56:47;;;;;;;;;11.67;11.67;;;;;23.79;75.06;99257.81;6284005;20;3510668;-60
2022/08/28 05:59:16;;;;;;;;;13.33;12.67;;;;;23.76;75.38;99258.19;6311618;20;3530607;-60
2022/08/28 06:01:48;;;;;;;;;12.67;9.67;;;;;24.06;73.77;99267.22;6283181;20;3498145;-61
2022/08/28 06:04:25;;;;;;;;;11.33;11.33;;;;;25.38;69.66;99266.91;6315377;20;3520047;-60
2022/08/28 06:06:55;;;;;;;;;12.67;10.67;;;;;24.74;69.47;99273.28;6309749;20;3520195;-63
2022/08/28 06:09:27;;;;;;;;;11.50;11.50;;;;;24.21;72.26;99267.19;6307713;20;2792145;-60
2022/08/28 06:12:01;;;;;;;;;10.00;10.00;;;;;24.42;70.83;99268.28;6310227;20;2788920;-62
2022/08/28 06:14:31;;;;;;;;;11.67;11.67;;;;;26.77;64.42;99274.13;6313419;20;2483623;-60
2022/08/28 06:17:02;;;;;;;;;14.00;14.00;;;;;27.27;62.29;99284.78;6315259;20;3523317;-61
2022/08/28 06:19:35;;;;;;;;;11.33;10.00;;;;;26.21;63.87;99274.38;6311956;20;3512857;-61
2022/08/28 06:22:13;;;;;;;;;11.33;11.00;;;;;25.22;68.07;99274.59;6281762;20;3512773;-61
2022/08/28 06:24:42;;;;;;;;;15.67;12.67;;;;;24.31;69.81;99284.22;6314718;20;3526277;-62
2022/08/28 06:27:11;;;;;;;;;10.50;10.50;;;;;25.46;67.17;99279.66;6321366;20;2483577;-60
2022/08/28 06:29:39;;;;;;;;;9.33;9.00;;;;;25.10;67.53;99279.75;6314670;20;3476415;-62
2022/08/28 06:32:08;;;;;;;;;16.00;13.67;;;;;26.93;62.31;99287.47;6315843;20;3545046;-61
2022/08/28 06:34:38;;;;;;;;;12.33;11.00;;;;;26.83;61.65;99300.84;6282292;20;3510668;-61
2022/08/28 06:37:08;;;;;;;;;10.00;10.00;;;;;26.83;62.23;99292.56;6315932;20;3521071;-61
2022/08/28 06:39:37;;;;;;;;;12.67;10.67;;;;;26.50;63.43;99290.56;6288534;20;2788812;-61
2022/08/28 06:42:05;;;;;;;;;12.00;12.00;;;;;28.59;56.70;99299.31;6314365;20;2793002;-61
2022/08/28 06:44:36;;;;;;;;;13.67;12.00;;;;;27.03;61.12;99289.81;6317626;20;3529493;-61
2022/08/28 06:47:05;;;;;;;;;12.00;9.67;;;;;26.35;62.29;99292.63;6321246;20;2790872;-62
2022/08/28 06:49:33;;;;;;;;;12.00;10.67;;;;;30.52;51.33;99300.34;6315189;20;3518093;-62
2022/08/28 06:52:02;;;;;;;;;12.00;11.67;;;;;31.88;46.95;99300.50;6316484;20;3508547;-61
2022/08/28 06:54:31;;;;;;;;;11.67;9.67;;;;;33.85;42.08;99305.66;6316645;20;3500254;-61
2022/08/28 06:56:59;;;;;;;;;9.67;9.67;;;;;33.40;42.48;99307.44;6306710;20;3488813;-62
2022/08/28 06:59:28;;;;;;;;;10.00;10.00;;;;;32.17;44.93;99301.44;6311672;20;3514222;-60
2022/08/28 07:01:56;;;;;;;;;11.00;10.00;;;;;32.24;44.22;99301.31;6321776;20;2467033;-59
2022/08/28 07:04:26;;;;;;;;;14.33;12.00;;;;;28.98;53.19;99278.84;6315306;20;3506655;-60
2022/08/28 07:06:54;;;;;;;;;8.33;8.33;;;;;27.61;56.67;99286.44;6317963;20;2756520;-59
2022/08/28 07:09:23;;;;;;;;;8.67;8.33;;;;;27.23;57.17;99278.00;6316835;20;3476256;-59
2022/08/28 07:11:53;;;;;;;;;5.00;5.00;;;;;26.91;58.29;99273.09;6342999;20;2740229;-59
2022/08/28 07:14:23;;;;;;;;;12.33;11.33;;;;;27.49;57.00;99277.09;6285943;20;3515974;-59
2022/08/28 07:16:54;;;;;;;;;11.33;8.00;;;;;27.85;56.23;99276.66;6318201;20;2771200;-60
2022/08/28 07:19:23;;;;;;;;;10.00;10.00;;;;;28.36;55.50;99274.97;6315730;20;3502475;-61
2022/08/28 07:21:51;;;;;;;;;12.67;9.67;;;;;29.13;53.15;99278.56;6314698;20;3505595;-61
2022/08/28 07:24:22;;;;;;;;;10.00;9.00;;;;;29.30;51.20;99267.78;6314107;20;3481537;-60
2022/08/28 07:26:51;;;;;;;;;10.67;9.33;;;;;29.17;51.66;99265.97;6320326;20;2783640;-59
2022/08/28 07:29:19;;;;;;;;;12.00;9.00;;;;;29.45;50.80;99275.72;6322073;20;2659789;-60
2022/08/28 07:31:52;;;;;;;;;10.33;9.00;;;;;29.92;49.88;99276.13;6314533;20;3477335;-59
2022/08/28 07:34:22;;;;;;;;;9.33;9.33;;;;;28.72;52.69;99277.13;6314990;20;2485719;-60
2022/08/28 07:36:57;;;;;;;;;12.33;12.00;;;;;28.29;53.77;99283.28;6314502;20;3521270;-60
2022/08/28 07:39:25;;;;;;;;;9.33;8.00;;;;;28.86;52.79;99275.13;6316104;20;2757706;-61
2022/08/28 07:41:54;;;;;;;;;12.33;10.67;;;;;29.07;52.25;99271.19;6320611;20;2785785;-63
2022/08/28 07:45:08;;;;;;;;;10.00;10.00;;;;;29.18;52.21;99275.13;6317438;20;2785825;-56
2022/08/28 07:47:11;;;;;;;;;11.67;11.67;;;;;28.75;52.82;99275.81;6317134;20;3530587;-61
2022/08/28 07:49:40;;;;;;;;;14.67;11.00;;;;;29.00;52.08;99285.00;6321871;20;2797134;-61
2022/08/28 07:52:11;;;;;;;;;12.00;11.00;;;;;29.73;50.70;99283.56;6312572;20;3530468;-60
2022/08/28 07:54:40;;;;;;;;;11.67;11.67;;;;;28.86;52.53;99277.91;6316486;20;2483673;-60
2022/08/28 07:57:09;;;;;;;;;7.67;5.67;;;;;29.30;50.08;99284.38;6313647;20;2724215;-59
2022/08/28 07:59:39;;;;;;;;;9.00;8.67;;;;;29.44;50.48;99291.47;6313609;20;2743020;-61
2022/08/28 08:02:11;;;;;;;;;10.67;9.00;;;;;29.07;50.39;99287.75;6321267;20;2776286;-61
2022/08/28 08:04:40;;;;;;;;;13.67;11.00;;;;;28.88;50.46;99292.31;6313530;20;2491964;-62
2022/08/28 08:07:11;;;;;;;;;10.33;10.33;;;;;29.59;48.88;99287.50;6305188;20;3518099;-61
2022/08/28 08:09:43;;;;;;;;;12.67;12.67;;;;;29.77;49.07;99289.50;6312979;20;2492424;-62
2022/08/28 08:12:14;;;;;;;;;9.67;8.00;;;;;29.69;49.77;99282.31;6324402;20;2762789;-61
2022/08/28 08:14:43;;;;;;;;;9.00;9.00;;;;;29.55;48.74;99284.34;6310167;20;3474207;-64
2022/08/28 08:17:11;;;;;;;;;10.00;10.00;;;;;29.77;47.88;99284.78;6309614;20;3524331;-63
2022/08/28 08:19:40;;;;;;;;;9.33;9.33;;;;;29.93;47.65;99284.19;6287548;20;2764958;-63
2022/08/28 08:22:09;;;;;;;;;10.00;8.67;;;;;29.79;48.21;99285.41;6309387;20;3490994;-61
2022/08/28 08:24:38;;;;;;;;;13.33;9.00;;;;;30.47;47.66;99295.50;6309516;20;3497190;-60
2022/08/28 08:27:06;;;;;;;;;6.67;6.67;;;;;30.77;45.10;99287.16;6308169;20;3470190;-55
2022/08/28 08:29:38;;;;;;;;;13.00;9.33;;;;;30.06;47.62;99287.88;6317551;20;3502371;-52
2022/08/28 08:32:10;;;;;;;;;9.33;8.33;;;;;30.96;45.15;99293.50;6315772;20;3470048;-55
2022/08/28 08:34:46;;;;;;;;;9.00;8.00;;;;;30.53;46.57;99291.78;6308131;20;3472272;-58
2022/08/28 08:37:15;;;;;;;;;10.00;8.00;;;;;30.66;45.33;99289.91;6310175;20;3485655;-59
2022/08/28 08:39:44;;;;;;;;;12.00;9.67;;;;;31.45;44.67;99288.69;6314608;20;3509680;-59
2022/08/28 08:42:31;;;;;;;;;8.33;8.33;;;;;30.78;43.27;99297.19;6316444;20;3476399;-63
2022/08/28 08:45:03;;;;;;;;;8.33;8.33;;;;;30.91;43.15;99296.16;6315294;20;2764995;-63
2022/08/28 08:47:48;;;;;;;;;7.00;7.00;;;;;30.57;43.98;99304.09;6313888;20;2746120;-62
2022/08/28 08:50:32;;;;;;;;;8.33;8.33;;;;;30.89;44.40;99291.94;6309534;20;3467965;-62
2022/08/28 08:53:27;;;;;;;;;9.33;9.33;;;;;31.11;42.60;99300.56;6308610;20;3486807;-62
2022/08/28 08:55:57;;;;;;;;;9.67;9.00;;;;;31.24;43.50;99289.25;6316933;20;2765933;-62
2022/08/28 08:58:39;;;;;;;;;7.33;7.33;;;;;31.41;42.96;99306.03;6305272;20;3456526;-62
2022/08/28 09:01:33;;;;;;;;;12.33;11.67;;;;;31.43;42.65;99306.66;6309705;20;3516965;-61
2022/08/28 09:04:29;;;;;;;;;9.00;8.67;;;;;31.11;42.22;99301.41;6279562;20;3458744;-62
2022/08/28 09:07:21;;;;;;;;;7.67;7.67;;;;;31.63;41.73;99303.53;6312663;20;2736788;-62
2022/08/28 09:09:56;;;;;;;;;11.00;9.00;;;;;31.26;42.37;99299.00;6308299;20;3491947;-63
2022/08/28 09:13:05;;;;;;;;;10.67;10.67;;;;;31.53;41.99;99301.34;6320687;20;2794169;-59
2022/08/28 09:15:44;;;;;;;;;8.67;8.67;;;;;30.97;43.22;99299.94;6307968;20;3463779;-59
2022/08/28 09:18:31;;;;;;;;;8.33;7.67;;;;;31.00;43.57;99296.69;6309668;20;3459797;-58
2022/08/28 09:20:59;;;;;;;;;12.33;11.00;;;;;31.03;43.65;99304.50;6309569;20;3511715;-59
2022/08/28 09:23:28;;;;;;;;;10.00;9.67;;;;;31.78;42.12;99305.81;6277776;20;3479614;-59
2022/08/28 09:26:07;;;;;;;;;9.67;9.00;;;;;31.23;41.53;99304.22;6294006;20;3488755;-59
2022/08/28 09:28:43;;;;;;;;;9.67;9.00;;;;;31.86;42.30;99308.22;6313505;20;3488806;-59
2022/08/28 09:31:30;;;;;;;;;12.00;9.33;;;;;31.37;42.36;99310.38;6319168;20;2492130;-59
2022/08/28 09:34:22;;;;;;;;;10.00;10.00;;;;;30.70;42.76;99303.06;6326669;20;2483604;-58
2022/08/28 09:36:53;;;;;;;;;9.33;8.00;;;;;31.09;42.93;99299.94;6322410;20;3459627;-60
2022/08/28 09:39:34;;;;;;;;;9.33;9.33;;;;;31.12;42.08;99302.22;6319081;20;2760788;-59
2022/08/28 09:45:24;;;;;;;;;8.00;8.00;;;;;31.40;41.48;99309.91;6326846;20;2750322;-58
2022/08/28 09:47:58;;;;;;;;;12.33;9.33;;;;;31.59;41.64;99311.50;6318442;20;3504508;-58
2022/08/28 09:50:41;;;;;;;;;14.00;10.00;;;;;31.61;40.33;99311.25;6290097;20;3523147;-58
2022/08/28 09:53:10;;;;;;;;;11.33;10.00;;;;;31.99;40.32;99319.09;6292593;20;2483749;-58
2022/08/28 09:56:09;;;;;;;;;10.00;9.67;;;;;32.52;40.63;99317.22;6325304;20;3489838;-60
2022/08/28 09:58:46;;;;;;;;;13.00;10.00;;;;;31.82;40.57;99312.59;6323507;20;2483578;-54
2022/08/28 10:02:09;;;;;;;;;11.33;11.33;;;;;31.97;41.58;99306.56;6320615;20;3513777;-53
2022/08/28 10:05:02;;;;;;;;;9.00;9.00;;;;;32.80;39.92;99306.06;6289702;20;3458680;-58
2022/08/28 10:07:56;;;;;;;;;11.00;10.00;;;;;32.29;41.09;99307.81;6325488;20;2485684;-58
2022/08/28 10:10:51;;;;;;;;;12.00;9.00;;;;;32.16;40.16;99313.66;6322143;20;2764872;-56
2022/08/28 10:13:30;;;;;;;;;11.00;9.33;;;;;32.33;40.54;99314.59;6319987;20;3506466;-57
2022/08/28 10:16:47;;;;;;;;;11.00;9.67;;;;;32.08;39.96;99306.53;6287679;20;3503351;-57
2022/08/28 10:20:07;;;;;;;;;10.00;9.00;;;;;32.29;39.98;99306.97;6287867;20;3477301;-58
2022/08/28 10:22:42;;;;;;;;;12.00;11.00;;;;;32.44;38.65;99304.53;6322414;20;3510642;-58
2022/08/28 10:25:31;;;;;;;;;10.00;10.00;;;;;32.28;38.16;99305.28;6289997;20;3515913;-62
2022/08/28 10:28:24;;;;;;;;;8.00;8.00;;;;;32.90;37.22;99287.91;6302996;20;2752400;-63
2022/08/28 10:31:29;;;;;;;;;14.33;10.33;;;;;32.46;37.33;99295.91;6325856;20;2483713;-61
2022/08/28 10:34:31;;;;;;;;;8.67;8.67;;;;;32.80;36.55;99299.69;6330986;20;2483601;-63
2022/08/28 10:37:47;;;;;;;;;13.00;10.00;;;;;32.21;37.69;99299.03;6318657;20;3502459;-62
2022/08/28 10:40:25;;;;;;;;;10.00;10.00;;;;;32.77;37.21;99297.41;6321335;20;3509666;-61
2022/08/28 10:43:13;;;;;;;;;11.33;11.00;;;;;32.83;37.10;99301.94;6318626;20;2483565;-61
2022/08/28 10:45:42;;;;;;;;;10.00;10.00;;;;;32.85;37.74;99293.38;6317423;20;3508701;-62
2022/08/28 10:48:35;;;;;;;;;11.00;10.00;;;;;32.85;37.02;99294.22;6316398;20;3510707;-59
2022/08/28 10:51:19;;;;;;;;;8.67;8.67;;;;;33.00;37.02;99302.84;6314132;20;2748221;-62
2022/08/28 10:54:39;;;;;;;;;10.00;10.00;;;;;33.16;36.09;99295.63;6319822;20;2483701;-59
2022/08/28 10:57:31;;;;;;;;;12.67;11.00;;;;;32.82;36.97;99283.59;6322252;20;2779580;-59
2022/08/28 11:00:20;;;;;;;;;11.00;11.00;;;;;32.67;36.89;99288.88;6312223;20;2483616;-59
2022/08/28 11:02:59;;;;;;;;;10.00;10.00;;;;;32.54;37.11;99282.50;6320054;20;3512715;-60
2022/08/28 11:05:46;;;;;;;;;10.33;10.00;;;;;32.35;38.12;99276.25;6316693;20;3514859;-60
2022/08/28 11:08:33;;;;;;;;;14.00;11.00;;;;;32.83;36.78;99276.94;6314321;20;3503536;-61
2022/08/28 11:11:11;;;;;;;;;16.67;11.33;;;;;32.86;36.56;99278.38;6313105;20;3512952;-62
2022/08/28 11:14:00;;;;;;;;;11.33;11.33;;;;;33.01;36.30;99281.47;6285725;20;3521046;-62
2022/08/28 11:16:29;;;;;;;;;15.00;12.00;;;;;32.95;36.77;99283.28;6282851;20;3535717;-63
2022/08/28 11:19:22;;;;;;;;;13.00;11.00;;;;;32.87;35.97;99280.91;6313025;20;3503360;-60
2022/08/28 11:22:51;;;;;;;;;10.67;9.33;;;;;32.97;36.29;99281.09;6312100;20;3499327;-61
2022/08/28 11:25:47;;;;;;;;;11.00;11.00;;;;;33.16;36.24;99283.66;6278716;20;3520033;-61
2022/08/28 11:28:46;;;;;;;;;13.00;13.00;;;;;32.82;36.60;99271.63;6282219;20;2491925;-58
2022/08/28 11:31:14;;;;;;;;;13.33;13.33;;;;;33.23;35.87;99287.13;6320546;20;3535199;-57
2022/08/28 11:33:58;;;;;;;;;13.00;11.00;;;;;32.88;36.75;99274.25;6317647;20;3496102;-57
2022/08/28 11:36:28;;;;;;;;;13.50;8.50;;;;;33.63;35.04;99273.03;6314041;20;2776490;-57
2022/08/28 11:39:12;;;;;;;;;11.00;10.00;;;;;33.23;36.37;99270.44;6313586;20;3510637;-57
2022/08/28 11:42:09;;;;;;;;;10.33;9.67;;;;;33.60;36.31;99273.56;6315707;20;2491922;-57
2022/08/28 11:44:43;;;;;;;;;11.33;10.33;;;;;32.90;37.10;99266.50;6315272;20;3509607;-58